createdAt,value
2023-03-20T00:00:17.850Z,10.38
2023-03-20T00:01:17.835Z,10.42
2023-03-20T00:02:17.850Z,10.39
2023-03-20T00:03:17.815Z,10.39
2023-03-20T00:04:17.839Z,10.42
2023-03-20T00:05:17.801Z,10.39
2023-03-20T00:06:17.796Z,10.42
2023-03-20T00:07:17.781Z,10.42
2023-03-20T00:08:17.757Z,10.42
2023-03-20T00:09:17.770Z,10.44
2023-03-20T00:10:17.738Z,10.43
2023-03-20T00:11:17.725Z,10.46
2023-03-20T00:12:17.717Z,10.44
2023-03-20T00:13:17.703Z,10.44
2023-03-20T00:14:17.691Z,10.47
2023-03-20T00:15:17.678Z,10.43
2023-03-20T00:16:17.679Z,10.47
2023-03-20T00:17:17.658Z,10.49
2023-03-20T00:18:17.671Z,10.46
2023-03-20T00:19:17.633Z,10.47
2023-03-20T00:20:17.636Z,10.49
2023-03-20T00:21:17.610Z,10.49
2023-03-20T00:22:17.635Z,10.47
2023-03-20T00:23:17.600Z,10.47
2023-03-20T00:24:17.579Z,10.47
2023-03-20T00:25:17.566Z,10.47
2023-03-20T00:26:17.558Z,10.51
2023-03-20T00:27:17.546Z,10.49
2023-03-20T00:28:17.535Z,10.47
2023-03-20T00:29:17.527Z,10.46
2023-03-20T00:30:17.508Z,10.47
2023-03-20T00:31:17.610Z,10.49
2023-03-20T00:32:17.491Z,10.49
2023-03-20T00:33:17.478Z,10.46
2023-03-20T00:34:17.487Z,10.46
2023-03-20T00:35:17.461Z,10.49
2023-03-20T00:36:17.445Z,10.43
2023-03-20T00:37:17.437Z,10.43
2023-03-20T00:38:17.422Z,10.44
2023-03-20T00:39:17.424Z,10.43
2023-03-20T00:40:17.399Z,10.43
2023-03-20T00:41:17.388Z,10.39
2023-03-20T00:42:17.376Z,10.42
2023-03-20T00:43:17.365Z,10.42
2023-03-20T00:44:17.358Z,10.42
2023-03-20T00:45:17.343Z,10.39
2023-03-20T00:46:17.368Z,10.43
2023-03-20T00:47:17.325Z,10.43
2023-03-20T00:48:17.315Z,10.42
2023-03-20T00:49:17.296Z,10.36
2023-03-20T00:50:17.309Z,10.35
2023-03-20T00:51:17.278Z,10.34
2023-03-20T00:52:17.275Z,10.36
2023-03-20T00:53:17.250Z,10.36
2023-03-20T00:54:17.291Z,10.32
2023-03-20T00:55:17.233Z,10.31
2023-03-20T00:56:17.219Z,10.29
2023-03-20T00:57:17.208Z,10.28
2023-03-20T00:58:17.219Z,10.29
2023-03-20T00:59:17.186Z,10.28
2023-03-20T01:00:17.181Z,10.28
2023-03-20T01:01:17.281Z,10.25
2023-03-20T01:02:17.171Z,10.28
2023-03-20T01:03:17.142Z,10.25
2023-03-20T01:04:17.146Z,10.24
2023-03-20T01:05:17.163Z,10.24
2023-03-20T01:06:17.205Z,10.26
2023-03-20T01:07:17.226Z,10.20
2023-03-20T01:08:17.248Z,10.24
2023-03-20T01:09:17.225Z,10.18
2023-03-20T01:10:17.196Z,10.20
2023-03-20T01:11:17.097Z,10.18
2023-03-20T01:12:17.041Z,10.17
2023-03-20T01:13:17.025Z,10.16
2023-03-20T01:14:17.016Z,10.16
2023-03-20T01:15:17.004Z,10.14
2023-03-20T01:16:17.072Z,10.13
2023-03-20T01:17:16.986Z,10.13
2023-03-20T01:18:16.970Z,10.11
2023-03-20T01:19:17.021Z,10.10
2023-03-20T01:20:16.947Z,10.09
2023-03-20T01:21:16.936Z,10.09
2023-03-20T01:22:16.946Z,10.10
2023-03-20T01:23:16.937Z,10.07
2023-03-20T01:24:16.898Z,10.04
2023-03-20T01:25:16.891Z,9.99
2023-03-20T01:26:16.876Z,9.99
2023-03-20T01:27:16.886Z,10.01
2023-03-20T01:28:16.855Z,9.98
2023-03-20T01:29:16.848Z,9.95
2023-03-20T01:30:16.830Z,9.96
2023-03-20T01:31:16.871Z,9.96
2023-03-20T01:32:16.823Z,9.95
2023-03-20T01:33:16.823Z,9.92
2023-03-20T01:34:16.784Z,9.95
2023-03-20T01:35:16.795Z,9.93
2023-03-20T01:36:16.832Z,9.92
2023-03-20T01:37:16.755Z,9.92
2023-03-20T01:38:16.783Z,9.92
2023-03-20T01:39:16.731Z,9.89
2023-03-20T01:40:16.725Z,9.86
2023-03-20T01:41:16.754Z,9.88
2023-03-20T01:42:16.699Z,9.86
2023-03-20T01:43:16.705Z,9.88
2023-03-20T01:44:16.675Z,9.86
2023-03-20T01:45:16.672Z,9.83
2023-03-20T01:46:16.703Z,9.85
2023-03-20T01:47:16.643Z,9.83
2023-03-20T01:48:16.631Z,9.83
2023-03-20T01:49:16.621Z,9.85
2023-03-20T01:50:16.614Z,9.85
2023-03-20T01:51:16.598Z,9.81
2023-03-20T01:52:16.586Z,9.78
2023-03-20T01:53:16.584Z,9.81
2023-03-20T01:54:16.588Z,9.75
2023-03-20T01:55:16.551Z,9.73
2023-03-20T01:56:16.540Z,9.73
2023-03-20T01:57:16.538Z,9.70
2023-03-20T01:58:16.518Z,9.70
2023-03-20T01:59:16.512Z,9.68
2023-03-20T02:00:16.501Z,9.65
2023-03-20T02:01:16.501Z,9.67
2023-03-20T02:02:16.480Z,9.65
2023-03-20T02:03:16.465Z,9.65
2023-03-20T02:04:16.450Z,9.62
2023-03-20T02:05:16.440Z,9.62
2023-03-20T02:06:16.434Z,9.63
2023-03-20T02:07:16.419Z,9.63
2023-03-20T02:08:16.420Z,9.63
2023-03-20T02:09:16.396Z,9.62
2023-03-20T02:10:16.436Z,9.56
2023-03-20T02:11:16.375Z,9.58
2023-03-20T02:12:16.359Z,9.56
2023-03-20T02:13:16.360Z,9.52
2023-03-20T02:14:16.338Z,9.52
2023-03-20T02:15:16.327Z,9.52
2023-03-20T02:16:16.379Z,9.53
2023-03-20T02:17:16.308Z,9.55
2023-03-20T02:18:16.311Z,9.52
2023-03-20T02:19:16.285Z,9.50
2023-03-20T02:20:16.275Z,9.49
2023-03-20T02:21:16.258Z,9.44
2023-03-20T02:22:16.258Z,9.44
2023-03-20T02:23:16.248Z,9.44
2023-03-20T02:24:16.223Z,9.42
2023-03-20T02:25:16.219Z,9.44
2023-03-20T02:26:16.227Z,9.42
2023-03-20T02:27:16.201Z,9.40
2023-03-20T02:28:16.189Z,9.40
2023-03-20T02:29:16.167Z,9.40
2023-03-20T02:30:16.160Z,9.38
2023-03-20T02:31:16.220Z,9.38
2023-03-20T02:32:16.134Z,9.38
2023-03-20T02:33:16.132Z,9.37
2023-03-20T02:34:16.114Z,9.37
2023-03-20T02:35:16.108Z,9.37
2023-03-20T02:36:16.121Z,9.38
2023-03-20T02:37:16.118Z,9.40
2023-03-20T02:38:16.072Z,9.37
2023-03-20T02:39:16.055Z,9.32
2023-03-20T02:40:16.039Z,9.34
2023-03-20T02:41:16.082Z,9.34
2023-03-20T02:42:16.041Z,9.34
2023-03-20T02:43:16.018Z,9.34
2023-03-20T02:44:16.000Z,9.35
2023-03-20T02:45:15.989Z,9.35
2023-03-20T02:46:16.004Z,9.34
2023-03-20T02:47:15.963Z,9.32
2023-03-20T02:48:15.952Z,9.34
2023-03-20T02:49:15.939Z,9.35
2023-03-20T02:50:15.928Z,9.32
2023-03-20T02:51:15.918Z,9.32
2023-03-20T02:52:15.905Z,9.31
2023-03-20T02:53:15.894Z,9.30
2023-03-20T02:54:15.882Z,9.32
2023-03-20T02:55:15.880Z,9.32
2023-03-20T02:56:15.860Z,9.31
2023-03-20T02:57:15.849Z,9.32
2023-03-20T02:58:15.864Z,9.32
2023-03-20T02:59:15.826Z,9.31
2023-03-20T03:00:15.816Z,9.32
2023-03-20T03:01:15.839Z,9.32
2023-03-20T03:02:15.825Z,9.32
2023-03-20T03:03:15.787Z,9.32
2023-03-20T03:04:15.769Z,9.35
2023-03-20T03:05:15.761Z,9.35
2023-03-20T03:06:15.746Z,9.37
2023-03-20T03:07:15.736Z,9.38
2023-03-20T03:08:15.728Z,9.35
2023-03-20T03:09:17.742Z,9.35
2023-03-20T03:10:15.705Z,9.35
2023-03-20T03:11:15.727Z,9.34
2023-03-20T03:12:15.685Z,9.31
2023-03-20T03:13:15.674Z,9.34
2023-03-20T03:14:15.685Z,9.32
2023-03-20T03:15:15.644Z,9.31
2023-03-20T03:16:15.720Z,9.30
2023-03-20T03:17:15.623Z,9.32
2023-03-20T03:18:15.608Z,9.31
2023-03-20T03:19:15.601Z,9.27
2023-03-20T03:20:15.592Z,9.26
2023-03-20T03:21:15.580Z,9.26
2023-03-20T03:22:15.563Z,9.24
2023-03-20T03:23:15.555Z,9.24
2023-03-20T03:24:15.541Z,9.26
2023-03-20T03:25:15.533Z,9.24
2023-03-20T03:26:15.525Z,9.24
2023-03-20T03:27:15.515Z,9.24
2023-03-20T03:28:15.500Z,9.23
2023-03-20T03:29:15.487Z,9.26
2023-03-20T03:30:15.515Z,9.23
2023-03-20T03:31:15.539Z,9.23
2023-03-20T03:32:15.450Z,9.23
2023-03-20T03:33:15.562Z,9.24
2023-03-20T03:34:15.427Z,9.23
2023-03-20T03:35:15.417Z,9.23
2023-03-20T03:36:15.437Z,9.22
2023-03-20T03:37:15.410Z,9.20
2023-03-20T03:38:15.382Z,9.24
2023-03-20T03:39:15.383Z,9.22
2023-03-20T03:40:15.361Z,9.22
2023-03-20T03:41:15.361Z,9.23
2023-03-20T03:42:15.335Z,9.22
2023-03-20T03:43:15.335Z,9.23
2023-03-20T03:44:15.313Z,9.22
2023-03-20T03:45:15.310Z,9.22
2023-03-20T03:46:15.362Z,9.23
2023-03-20T03:47:15.284Z,9.22
2023-03-20T03:48:15.266Z,9.20
2023-03-20T03:49:15.267Z,9.23
2023-03-20T03:50:15.246Z,9.22
2023-03-20T03:51:15.241Z,9.20
2023-03-20T03:52:15.227Z,9.22
2023-03-20T03:53:15.220Z,9.22
2023-03-20T03:54:15.200Z,9.19
2023-03-20T03:55:15.196Z,9.23
2023-03-20T03:56:15.225Z,9.23
2023-03-20T03:57:15.167Z,9.22
2023-03-20T03:58:15.158Z,9.23
2023-03-20T03:59:15.146Z,9.22
2023-03-20T04:00:15.142Z,9.20
2023-03-20T04:01:15.124Z,9.22
2023-03-20T04:02:15.141Z,9.23
2023-03-20T04:03:15.112Z,9.23
2023-03-20T04:04:15.131Z,9.24
2023-03-20T04:05:15.091Z,9.23
2023-03-20T04:06:15.066Z,9.23
2023-03-20T04:07:15.056Z,9.23
2023-03-20T04:08:15.046Z,9.22
2023-03-20T04:09:15.039Z,9.24
2023-03-20T04:10:15.034Z,9.22
2023-03-20T04:11:15.011Z,9.20
2023-03-20T04:12:15.000Z,9.20
2023-03-20T04:13:14.990Z,9.22
2023-03-20T04:14:14.987Z,9.19
2023-03-20T04:15:14.970Z,9.20
2023-03-20T04:16:15.024Z,9.20
2023-03-20T04:17:14.944Z,9.19
2023-03-20T04:18:14.955Z,9.19
2023-03-20T04:19:14.931Z,9.19
2023-03-20T04:20:14.919Z,9.19
2023-03-20T04:21:14.897Z,9.19
2023-03-20T04:22:14.887Z,9.17
2023-03-20T04:23:14.875Z,9.19
2023-03-20T04:24:14.863Z,9.16
2023-03-20T04:25:14.853Z,9.17
2023-03-20T04:26:14.843Z,9.16
2023-03-20T04:27:14.837Z,9.15
2023-03-20T04:28:14.822Z,9.16
2023-03-20T04:29:14.808Z,9.15
2023-03-20T04:30:14.797Z,9.16
2023-03-20T04:31:14.850Z,9.15
2023-03-20T04:32:14.774Z,9.15
2023-03-20T04:33:14.782Z,9.16
2023-03-20T04:34:14.776Z,9.15
2023-03-20T04:35:14.743Z,9.16
2023-03-20T04:36:14.810Z,9.16
2023-03-20T04:37:14.726Z,9.13
2023-03-20T04:38:14.709Z,9.15
2023-03-20T04:39:14.714Z,9.12
2023-03-20T04:40:14.683Z,9.13
2023-03-20T04:41:14.677Z,9.15
2023-03-20T04:42:14.661Z,9.12
2023-03-20T04:43:14.661Z,9.10
2023-03-20T04:44:14.642Z,9.08
2023-03-20T04:45:14.628Z,9.08
2023-03-20T04:46:14.686Z,9.10
2023-03-20T04:47:14.608Z,9.12
2023-03-20T04:48:14.625Z,9.10
2023-03-20T04:49:14.582Z,9.10
2023-03-20T04:50:14.636Z,9.12
2023-03-20T04:51:14.587Z,9.08
2023-03-20T04:52:14.550Z,9.08
2023-03-20T04:53:14.539Z,9.08
2023-03-20T04:54:14.527Z,9.06
2023-03-20T04:55:14.523Z,9.08
2023-03-20T04:56:14.502Z,9.08
2023-03-20T04:57:14.491Z,9.08
2023-03-20T04:58:14.483Z,9.04
2023-03-20T04:59:14.469Z,9.08
2023-03-20T05:00:14.917Z,9.10
2023-03-20T05:01:14.529Z,9.08
2023-03-20T05:02:14.438Z,9.06
2023-03-20T05:03:14.429Z,9.06
2023-03-20T05:04:14.469Z,9.04
2023-03-20T05:05:14.406Z,9.08
2023-03-20T05:06:14.412Z,9.08
2023-03-20T05:07:14.383Z,9.06
2023-03-20T05:08:14.377Z,9.04
2023-03-20T05:09:14.357Z,9.08
2023-03-20T05:10:14.345Z,9.10
2023-03-20T05:11:14.339Z,9.06
2023-03-20T05:12:14.317Z,9.08
2023-03-20T05:13:14.306Z,9.08
2023-03-20T05:14:14.297Z,9.10
2023-03-20T05:15:14.290Z,9.10
2023-03-20T05:16:14.341Z,9.12
2023-03-20T05:17:14.265Z,9.08
2023-03-20T05:18:14.261Z,9.10
2023-03-20T05:19:14.240Z,9.08
2023-03-20T05:20:14.230Z,9.08
2023-03-20T05:21:14.216Z,9.08
2023-03-20T05:22:14.227Z,9.13
2023-03-20T05:23:14.199Z,9.12
2023-03-20T05:24:14.205Z,9.12
2023-03-20T05:25:14.172Z,9.12
2023-03-20T05:26:14.155Z,9.12
2023-03-20T05:27:14.145Z,9.10
2023-03-20T05:28:14.134Z,9.12
2023-03-20T05:29:14.129Z,9.12
2023-03-20T05:30:14.113Z,9.13
2023-03-20T05:31:14.163Z,9.12
2023-03-20T05:32:14.091Z,9.13
2023-03-20T05:33:14.267Z,9.12
2023-03-20T05:34:14.066Z,9.12
2023-03-20T05:35:14.055Z,9.12
2023-03-20T05:36:14.083Z,9.12
2023-03-20T05:37:14.031Z,9.12
2023-03-20T05:38:14.050Z,9.13
2023-03-20T05:39:14.011Z,9.13
2023-03-20T05:40:13.999Z,9.12
2023-03-20T05:41:13.984Z,9.12
2023-03-20T05:42:13.975Z,9.12
2023-03-20T05:43:13.975Z,9.13
2023-03-20T05:44:13.952Z,9.13
2023-03-20T05:45:13.939Z,9.15
2023-03-20T05:46:13.994Z,9.16
2023-03-20T05:47:13.917Z,9.15
2023-03-20T05:48:13.905Z,9.16
2023-03-20T05:49:13.896Z,9.16
2023-03-20T05:50:13.898Z,9.16
2023-03-20T05:51:13.872Z,9.17
2023-03-20T05:52:13.863Z,9.16
2023-03-20T05:53:13.858Z,9.16
2023-03-20T05:54:13.870Z,9.17
2023-03-20T05:55:13.829Z,9.17
2023-03-20T05:56:13.817Z,9.16
2023-03-20T05:57:13.806Z,9.17
2023-03-20T05:58:13.794Z,9.22
2023-03-20T05:59:13.781Z,9.19
2023-03-20T06:00:13.772Z,9.20
2023-03-20T06:01:13.760Z,9.22
2023-03-20T06:02:13.783Z,9.22
2023-03-20T06:03:13.770Z,9.23
2023-03-20T06:04:13.729Z,9.23
2023-03-20T06:05:13.721Z,9.23
2023-03-20T06:06:13.705Z,9.24
2023-03-20T06:07:13.704Z,9.26
2023-03-20T06:08:13.692Z,9.27
2023-03-20T06:09:13.674Z,9.27
2023-03-20T06:10:13.685Z,9.26
2023-03-20T06:11:13.650Z,9.27
2023-03-20T06:12:13.657Z,9.30
2023-03-20T06:13:13.626Z,9.27
2023-03-20T06:14:13.642Z,9.27
2023-03-20T06:15:13.606Z,9.31
2023-03-20T06:16:13.644Z,9.32
2023-03-20T06:17:13.585Z,9.34
2023-03-20T06:18:13.569Z,9.32
2023-03-20T06:19:13.559Z,9.34
2023-03-20T06:20:13.548Z,9.35
2023-03-20T06:21:13.541Z,9.35
2023-03-20T06:22:13.523Z,9.37
2023-03-20T06:23:13.518Z,9.35
2023-03-20T06:24:13.503Z,9.40
2023-03-20T06:25:13.516Z,9.38
2023-03-20T06:26:13.502Z,9.40
2023-03-20T06:27:13.500Z,9.41
2023-03-20T06:28:13.468Z,9.42
2023-03-20T06:29:13.461Z,9.42
2023-03-20T06:30:13.432Z,9.44
2023-03-20T06:31:13.455Z,9.44
2023-03-20T06:32:13.425Z,9.48
2023-03-20T06:33:13.456Z,9.48
2023-03-20T06:34:13.396Z,9.48
2023-03-20T06:35:13.372Z,9.48
2023-03-20T06:36:13.376Z,9.48
2023-03-20T06:37:13.350Z,9.50
2023-03-20T06:38:13.338Z,9.50
2023-03-20T06:39:13.336Z,9.52
2023-03-20T06:40:13.326Z,9.53
2023-03-20T06:41:18.901Z,9.53
2023-03-20T06:42:16.029Z,9.56
2023-03-20T06:43:13.280Z,9.56
2023-03-20T06:44:13.820Z,9.58
2023-03-20T06:45:13.337Z,9.59
2023-03-20T06:46:13.286Z,9.60
2023-03-20T06:47:13.250Z,9.63
2023-03-20T06:48:13.226Z,9.65
2023-03-20T06:49:13.213Z,9.63
2023-03-20T06:50:13.202Z,9.65
2023-03-20T06:51:13.189Z,9.67
2023-03-20T06:52:13.177Z,9.73
2023-03-20T06:53:13.168Z,9.75
2023-03-20T06:54:13.157Z,9.75
2023-03-20T06:55:13.146Z,9.75
2023-03-20T06:56:13.135Z,9.78
2023-03-20T06:57:15.203Z,9.81
2023-03-20T06:58:13.147Z,9.81
2023-03-20T06:59:13.100Z,9.80
2023-03-20T07:00:13.099Z,9.81
2023-03-20T07:01:13.076Z,9.80
2023-03-20T07:02:13.180Z,9.80
2023-03-20T07:03:13.055Z,9.77
2023-03-20T07:04:13.053Z,9.75
2023-03-20T07:05:13.068Z,9.75
2023-03-20T07:06:13.032Z,9.74
2023-03-20T07:07:13.014Z,9.71
2023-03-20T07:08:13.018Z,9.74
2023-03-20T07:09:12.996Z,9.74
2023-03-20T07:10:12.991Z,9.73
2023-03-20T07:11:12.998Z,9.73
2023-03-20T07:12:12.960Z,9.74
2023-03-20T07:13:12.964Z,9.73
2023-03-20T07:14:13.196Z,9.74
2023-03-20T07:15:13.221Z,9.78
2023-03-20T07:16:12.997Z,9.80
2023-03-20T07:17:12.903Z,9.81
2023-03-20T07:18:12.894Z,9.85
2023-03-20T07:19:12.880Z,9.91
2023-03-20T07:20:12.882Z,9.88
2023-03-20T07:21:12.860Z,9.92
2023-03-20T07:22:12.845Z,9.95
2023-03-20T07:23:12.835Z,9.96
2023-03-20T07:24:12.823Z,9.96
2023-03-20T07:25:12.810Z,9.98
2023-03-20T07:26:12.803Z,9.95
2023-03-20T07:27:12.875Z,9.93
2023-03-20T07:28:12.793Z,9.96
2023-03-20T07:29:12.766Z,9.95
2023-03-20T07:30:12.786Z,9.95
2023-03-20T07:31:12.764Z,9.96
2023-03-20T07:32:12.733Z,9.96
2023-03-20T07:33:12.826Z,9.98
2023-03-20T07:34:12.724Z,9.98
2023-03-20T07:35:12.701Z,10.01
2023-03-20T07:36:12.691Z,9.98
2023-03-20T07:37:12.685Z,10.01
2023-03-20T07:38:12.667Z,10.01
2023-03-20T07:39:12.654Z,10.02
2023-03-20T07:40:12.653Z,10.06
2023-03-20T07:41:12.693Z,10.06
2023-03-20T07:42:12.632Z,10.06
2023-03-20T07:43:12.810Z,10.06
2023-03-20T07:44:12.597Z,10.07
2023-03-20T07:45:12.585Z,10.02
2023-03-20T07:46:12.731Z,10.02
2023-03-20T07:47:12.559Z,10.02
2023-03-20T07:48:12.557Z,10.06
2023-03-20T07:49:12.539Z,10.02
2023-03-20T07:50:12.529Z,10.04
2023-03-20T07:51:12.535Z,10.02
2023-03-20T07:52:12.506Z,9.99
2023-03-20T07:53:12.490Z,9.99
2023-03-20T07:54:12.519Z,10.01
2023-03-20T07:55:12.481Z,10.01
2023-03-20T07:56:12.462Z,10.04
2023-03-20T07:57:12.455Z,9.99
2023-03-20T07:58:12.439Z,9.99
2023-03-20T07:59:12.424Z,10.02
2023-03-20T08:00:12.423Z,10.06
2023-03-20T08:01:12.401Z,10.07
2023-03-20T08:02:12.415Z,10.04
2023-03-20T08:03:12.528Z,10.09
2023-03-20T08:04:12.454Z,10.10
2023-03-20T08:05:12.365Z,10.11
2023-03-20T08:06:12.376Z,10.13
2023-03-20T08:07:12.346Z,10.16
2023-03-20T08:08:12.330Z,10.18
2023-03-20T08:09:12.311Z,10.24
2023-03-20T08:10:12.308Z,10.26
2023-03-20T08:11:12.311Z,10.31
2023-03-20T08:12:12.292Z,10.35
2023-03-20T08:13:12.384Z,10.35
2023-03-20T08:14:12.448Z,10.42
2023-03-20T08:15:12.250Z,10.44
2023-03-20T08:16:12.276Z,10.47
2023-03-20T08:17:15.536Z,10.46
2023-03-20T08:18:12.252Z,10.39
2023-03-20T08:19:12.265Z,10.42
2023-03-20T08:20:12.201Z,10.43
2023-03-20T08:21:12.202Z,10.49
2023-03-20T08:22:12.169Z,10.51
2023-03-20T08:23:12.158Z,10.51
2023-03-20T08:24:12.164Z,10.55
2023-03-20T08:25:12.146Z,10.54
2023-03-20T08:26:12.166Z,10.55
2023-03-20T08:27:12.118Z,10.55
2023-03-20T08:28:12.104Z,10.55
2023-03-20T08:29:12.091Z,10.57
2023-03-20T08:30:12.134Z,10.58
2023-03-20T08:31:12.105Z,10.62
2023-03-20T08:32:12.058Z,10.63
2023-03-20T08:33:12.074Z,10.58
2023-03-20T08:34:12.058Z,10.58
2023-03-20T08:35:25.792Z,10.62
2023-03-20T08:36:13.107Z,10.68
2023-03-20T08:37:12.004Z,10.68
2023-03-20T08:38:12.001Z,10.72
2023-03-20T08:39:12.059Z,10.81
2023-03-20T08:40:12.048Z,10.80
2023-03-20T08:41:12.093Z,10.81
2023-03-20T08:42:12.040Z,10.83
2023-03-20T08:43:12.101Z,10.83
2023-03-20T08:44:12.043Z,10.88
2023-03-20T08:45:12.076Z,10.88
2023-03-20T08:46:12.132Z,10.88
2023-03-20T08:47:12.167Z,10.91
2023-03-20T08:48:11.879Z,10.90
2023-03-20T08:49:11.869Z,10.87
2023-03-20T08:50:11.881Z,10.84
2023-03-20T08:51:11.852Z,10.88
2023-03-20T08:52:11.854Z,10.88
2023-03-20T08:53:11.821Z,10.93
2023-03-20T08:54:11.818Z,10.99
2023-03-20T08:55:11.799Z,10.99
2023-03-20T08:56:11.792Z,11.12
2023-03-20T08:57:11.781Z,11.16
2023-03-20T08:58:11.792Z,11.23
2023-03-20T08:59:11.761Z,11.23
2023-03-20T09:00:11.745Z,11.23
2023-03-20T09:01:11.796Z,11.19
2023-03-20T09:02:11.817Z,11.24
2023-03-20T09:03:11.764Z,11.28
2023-03-20T09:04:11.724Z,11.33
2023-03-20T09:05:11.700Z,11.28
2023-03-20T09:06:11.703Z,11.23
2023-03-20T09:07:11.666Z,11.26
2023-03-20T09:08:11.657Z,11.27
2023-03-20T09:09:11.642Z,11.23
2023-03-20T09:10:11.625Z,11.33
2023-03-20T09:11:11.617Z,11.44
2023-03-20T09:12:11.606Z,11.48
2023-03-20T09:13:26.113Z,11.56
2023-03-20T09:14:12.687Z,11.62
2023-03-20T09:15:11.574Z,11.70
2023-03-20T09:16:13.765Z,11.70
2023-03-20T09:17:11.548Z,11.74
2023-03-20T09:18:11.561Z,11.87
2023-03-20T09:19:11.525Z,12.01
2023-03-20T09:20:11.515Z,12.04
2023-03-20T09:21:11.500Z,12.03
2023-03-20T09:22:11.514Z,12.04
2023-03-20T09:23:11.479Z,11.98
2023-03-20T09:24:11.497Z,11.94
2023-03-20T09:25:11.466Z,11.88
2023-03-20T09:26:11.458Z,11.94
2023-03-20T09:27:11.438Z,11.98
2023-03-20T09:28:11.427Z,11.98
2023-03-20T09:29:11.435Z,12.05
2023-03-20T09:30:11.404Z,11.96
2023-03-20T09:31:11.424Z,11.94
2023-03-20T09:32:11.384Z,11.94
2023-03-20T09:33:11.544Z,11.98
2023-03-20T09:34:11.361Z,12.08
2023-03-20T09:35:11.345Z,12.04
2023-03-20T09:36:11.381Z,12.07
2023-03-20T09:37:11.324Z,12.03
2023-03-20T09:38:11.340Z,12.00
2023-03-20T09:39:11.302Z,11.90
2023-03-20T09:40:11.288Z,11.93
2023-03-20T09:41:11.281Z,11.93
2023-03-20T09:42:11.275Z,12.03
2023-03-20T09:43:11.260Z,12.12
2023-03-20T09:44:11.265Z,12.22
2023-03-20T09:45:11.267Z,12.25
2023-03-20T09:46:11.271Z,12.25
2023-03-20T09:47:19.829Z,12.29
2023-03-20T09:48:11.222Z,12.29
2023-03-20T09:49:11.190Z,12.25
2023-03-20T09:50:11.186Z,12.36
2023-03-20T09:51:11.168Z,12.43
2023-03-20T09:52:11.157Z,12.48
2023-03-20T09:53:11.149Z,12.56
2023-03-20T09:54:11.181Z,12.59
2023-03-20T09:55:11.162Z,12.49
2023-03-20T09:56:11.427Z,12.38
2023-03-20T09:57:11.109Z,12.34
2023-03-20T09:58:11.093Z,12.23
2023-03-20T09:59:11.077Z,12.25
2023-03-20T10:00:11.068Z,12.25
2023-03-20T10:01:11.054Z,12.40
2023-03-20T10:02:11.122Z,12.40
2023-03-20T10:03:11.037Z,12.44
2023-03-20T10:04:11.120Z,12.44
2023-03-20T10:05:11.009Z,12.49
2023-03-20T10:06:10.997Z,12.55
2023-03-20T10:07:10.988Z,12.58
2023-03-20T10:08:10.990Z,12.62
2023-03-20T10:09:10.985Z,12.62
2023-03-20T10:10:10.981Z,12.66
2023-03-20T10:11:10.950Z,12.73
2023-03-20T10:12:10.937Z,12.59
2023-03-20T10:13:10.920Z,12.51
2023-03-20T10:14:10.912Z,12.46
2023-03-20T10:15:10.900Z,12.51
2023-03-20T10:16:10.924Z,12.55
2023-03-20T10:17:10.882Z,12.54
2023-03-20T10:18:10.862Z,12.63
2023-03-20T10:19:10.859Z,12.69
2023-03-20T10:20:10.841Z,12.67
2023-03-20T10:21:10.881Z,12.66
2023-03-20T10:22:10.827Z,12.55
2023-03-20T10:23:10.805Z,12.61
2023-03-20T10:24:10.826Z,12.62
2023-03-20T10:25:10.815Z,12.71
2023-03-20T10:26:10.799Z,12.84
2023-03-20T10:27:10.763Z,12.96
2023-03-20T10:28:10.750Z,13.06
2023-03-20T10:29:10.739Z,13.17
2023-03-20T10:30:10.736Z,13.12
2023-03-20T10:31:10.757Z,13.16
2023-03-20T10:32:10.702Z,13.32
2023-03-20T10:33:10.914Z,13.41
2023-03-20T10:34:10.682Z,13.38
2023-03-20T10:35:11.197Z,13.43
2023-03-20T10:36:10.828Z,13.39
2023-03-20T10:37:10.653Z,13.22
2023-03-20T10:38:10.638Z,13.09
2023-03-20T10:39:10.629Z,13.10
2023-03-20T10:40:10.630Z,12.96
2023-03-20T10:41:10.609Z,12.96
2023-03-20T10:42:10.628Z,12.91
2023-03-20T10:43:10.586Z,13.03
2023-03-20T10:44:10.573Z,13.12
2023-03-20T10:45:10.563Z,13.22
2023-03-20T10:46:10.550Z,13.35
2023-03-20T10:47:10.739Z,13.48
2023-03-20T10:48:10.535Z,13.47
2023-03-20T10:49:10.521Z,13.41
2023-03-20T10:50:10.512Z,13.54
2023-03-20T10:51:10.511Z,13.62
2023-03-20T10:52:10.487Z,13.72
2023-03-20T10:53:10.475Z,13.66
2023-03-20T10:54:10.462Z,13.73
2023-03-20T10:55:10.454Z,13.81
2023-03-20T10:56:10.445Z,13.96
2023-03-20T10:57:10.433Z,14.08
2023-03-20T10:58:10.461Z,14.27
2023-03-20T10:59:10.461Z,14.21
2023-03-20T11:00:10.405Z,14.19
2023-03-20T11:01:10.435Z,14.21
2023-03-20T11:02:10.380Z,14.45
2023-03-20T11:03:10.365Z,14.63
2023-03-20T11:04:10.524Z,14.74
2023-03-20T11:05:10.348Z,14.93
2023-03-20T11:06:10.659Z,15.23
2023-03-20T11:07:11.063Z,15.31
2023-03-20T11:08:10.314Z,15.49
2023-03-20T11:09:10.309Z,15.84
2023-03-20T11:10:10.286Z,16.10
2023-03-20T11:11:10.284Z,15.71
2023-03-20T11:12:10.265Z,15.51
2023-03-20T11:13:10.266Z,15.41
2023-03-20T11:14:10.266Z,15.35
2023-03-20T11:15:10.231Z,15.09
2023-03-20T11:16:10.229Z,14.69
2023-03-20T11:17:10.212Z,14.42
2023-03-20T11:18:10.204Z,14.11
2023-03-20T11:19:10.190Z,14.13
2023-03-20T11:20:10.177Z,14.09
2023-03-20T11:21:10.167Z,14.02
2023-03-20T11:22:10.157Z,14.05
2023-03-20T11:23:10.173Z,14.09
2023-03-20T11:24:11.683Z,14.30
2023-03-20T11:25:10.149Z,14.34
2023-03-20T11:26:10.132Z,14.41
2023-03-20T11:27:10.122Z,14.52
2023-03-20T11:28:10.086Z,14.54
2023-03-20T11:29:10.078Z,14.60
2023-03-20T11:30:10.086Z,14.61
2023-03-20T11:31:10.054Z,14.61
2023-03-20T11:32:10.099Z,14.75
2023-03-20T11:33:10.062Z,14.79
2023-03-20T11:34:10.025Z,14.67
2023-03-20T11:35:10.012Z,14.72
2023-03-20T11:36:10.033Z,14.82
2023-03-20T11:37:11.045Z,14.80
2023-03-20T11:38:09.972Z,14.90
2023-03-20T11:39:09.960Z,14.95
2023-03-20T11:40:09.956Z,15.09
2023-03-20T11:41:09.939Z,15.27
2023-03-20T11:42:09.924Z,15.43
2023-03-20T11:43:09.917Z,15.34
2023-03-20T11:44:09.904Z,15.38
2023-03-20T11:45:09.898Z,15.59
2023-03-20T11:46:09.936Z,15.59
2023-03-20T11:47:09.901Z,15.49
2023-03-20T11:48:09.879Z,15.60
2023-03-20T11:49:09.858Z,15.51
2023-03-20T11:50:09.837Z,15.52
2023-03-20T11:51:09.823Z,15.46
2023-03-20T11:52:09.812Z,15.56
2023-03-20T11:53:09.805Z,15.62
2023-03-20T11:54:09.840Z,15.76
2023-03-20T11:55:09.789Z,15.93
2023-03-20T11:56:09.769Z,16.04
2023-03-20T11:57:09.761Z,16.16
2023-03-20T11:58:09.750Z,16.11
2023-03-20T11:59:09.825Z,16.01
2023-03-20T12:00:09.737Z,15.86
2023-03-20T12:01:09.716Z,15.74
2023-03-20T12:02:09.797Z,15.74
2023-03-20T12:03:09.726Z,15.66
2023-03-20T12:04:09.686Z,15.67
2023-03-20T12:05:11.318Z,15.71
2023-03-20T12:06:09.669Z,15.68
2023-03-20T12:07:09.660Z,15.77
2023-03-20T12:08:09.650Z,15.91
2023-03-20T12:09:09.632Z,16.01
2023-03-20T12:10:09.619Z,15.93
2023-03-20T12:11:09.643Z,15.96
2023-03-20T12:12:09.598Z,15.73
2023-03-20T12:13:09.587Z,15.52
2023-03-20T12:14:09.573Z,15.41
2023-03-20T12:15:09.565Z,15.28
2023-03-20T12:16:09.597Z,15.22
2023-03-20T12:17:09.544Z,15.13
2023-03-20T12:18:09.557Z,15.04
2023-03-20T12:19:09.520Z,14.87
2023-03-20T12:20:09.514Z,14.75
2023-03-20T12:21:09.495Z,14.59
2023-03-20T12:22:09.484Z,14.49
2023-03-20T12:23:09.473Z,14.48
2023-03-20T12:24:09.475Z,14.36
2023-03-20T12:25:09.455Z,14.34
2023-03-20T12:26:09.441Z,14.27
2023-03-20T12:27:09.430Z,14.26
2023-03-20T12:28:09.419Z,14.21
2023-03-20T12:29:09.410Z,14.29
2023-03-20T12:30:09.396Z,14.24
2023-03-20T12:31:09.431Z,14.16
2023-03-20T12:32:09.377Z,14.16
2023-03-20T12:33:09.402Z,14.12
2023-03-20T12:34:09.374Z,14.12
2023-03-20T12:35:09.367Z,14.12
2023-03-20T12:36:09.387Z,14.11
2023-03-20T12:37:09.322Z,14.19
2023-03-20T12:38:09.305Z,14.16
2023-03-20T12:39:09.294Z,14.20
2023-03-20T12:40:09.280Z,14.11
2023-03-20T12:41:09.270Z,14.06
2023-03-20T12:42:09.253Z,13.98
2023-03-20T12:43:09.245Z,14.01
2023-03-20T12:44:09.236Z,13.98
2023-03-20T12:45:09.224Z,13.93
2023-03-20T12:46:09.227Z,13.98
2023-03-20T12:47:09.231Z,13.96
2023-03-20T12:48:09.195Z,13.88
2023-03-20T12:49:09.175Z,13.96
2023-03-20T12:51:09.151Z,14.06
2023-03-20T12:52:09.136Z,14.05
2023-03-20T12:53:09.137Z,14.02
2023-03-20T12:54:09.131Z,13.99
2023-03-20T12:55:09.111Z,13.87
2023-03-20T12:56:09.095Z,13.76
2023-03-20T12:57:09.084Z,13.75
2023-03-20T12:58:09.083Z,13.68
2023-03-20T12:59:09.079Z,13.72
2023-03-20T13:00:09.054Z,13.71
2023-03-20T13:01:09.071Z,13.69
2023-03-20T13:02:09.106Z,13.65
2023-03-20T13:03:09.230Z,13.61
2023-03-20T13:04:09.003Z,13.53
2023-03-20T13:05:08.998Z,13.46